createdAt,value
2023-03-26T00:01:46.634Z,100863.84
2023-03-26T00:04:13.625Z,100912.56
2023-03-26T00:06:41.771Z,100867.56
2023-03-26T00:09:10.675Z,100855.56
2023-03-26T00:11:37.895Z,100878.97
2023-03-26T00:14:05.872Z,100895.84
2023-03-26T00:16:33.784Z,100904.34
2023-03-26T00:19:03.104Z,100869.34
2023-03-26T00:21:31.086Z,100882.13
2023-03-26T00:24:04.973Z,100853.00
2023-03-26T00:26:37.783Z,100882.75
2023-03-26T00:29:07.073Z,100906.41
2023-03-26T00:31:41.252Z,100914.25
2023-03-26T00:34:10.539Z,100891.84
2023-03-26T00:36:37.414Z,100855.25
2023-03-26T00:39:05.854Z,100887.50
2023-03-26T00:41:32.966Z,100869.56
2023-03-26T00:44:00.636Z,100873.56
2023-03-26T00:46:30.840Z,100879.59
2023-03-26T00:48:58.985Z,100879.94
2023-03-26T00:51:27.805Z,100884.28
2023-03-26T00:53:55.066Z,100880.00
2023-03-26T00:56:21.950Z,100851.31
2023-03-26T00:58:50.309Z,100847.13
2023-03-26T01:01:29.153Z,100888.00
2023-03-26T01:04:08.403Z,100835.38
2023-03-26T01:06:39.128Z,100865.66
2023-03-26T01:09:16.079Z,100866.59
2023-03-26T01:11:43.446Z,100854.00
2023-03-26T01:14:18.565Z,100861.66
2023-03-26T01:16:50.155Z,100852.41
2023-03-26T01:19:41.091Z,100890.00
2023-03-26T01:22:12.074Z,100854.06
2023-03-26T01:24:42.363Z,100840.31
2023-03-26T01:27:18.313Z,100874.66
2023-03-26T01:29:54.212Z,100822.59
2023-03-26T01:32:23.874Z,100852.56
2023-03-26T01:35:09.671Z,100862.25
2023-03-26T01:37:58.579Z,100838.34
2023-03-26T01:40:38.832Z,100836.47
2023-03-26T01:43:08.392Z,100815.19
2023-03-26T01:45:38.692Z,100846.59
2023-03-26T01:48:08.848Z,100844.91
2023-03-26T01:50:35.834Z,100815.19
2023-03-26T01:53:05.392Z,100828.47
2023-03-26T01:55:49.656Z,100804.09
2023-03-26T01:58:35.619Z,100769.28
2023-03-26T02:01:24.444Z,100821.84
2023-03-26T02:03:57.877Z,100790.63
2023-03-26T02:06:44.684Z,100773.69
2023-03-26T02:09:20.578Z,100818.22
2023-03-26T02:11:48.966Z,100778.19
2023-03-26T02:14:15.894Z,100804.44
2023-03-26T02:16:46.973Z,100801.56
2023-03-26T02:19:15.958Z,100753.22
2023-03-26T02:21:42.946Z,100736.03
2023-03-26T02:24:09.685Z,100745.66
2023-03-26T02:26:37.835Z,100762.59
2023-03-26T02:29:07.557Z,100772.03
2023-03-26T02:31:35.871Z,100738.69
2023-03-26T02:34:02.874Z,100798.31
2023-03-26T02:36:29.888Z,100750.91
2023-03-26T02:39:00.599Z,100754.16
2023-03-26T02:41:27.527Z,100752.53
2023-03-26T02:43:54.315Z,100717.31
2023-03-26T02:46:21.477Z,100734.97
2023-03-26T02:48:48.836Z,100722.81
2023-03-26T02:51:18.305Z,100749.03
2023-03-26T02:53:45.846Z,100743.94
2023-03-26T02:56:12.605Z,100754.84
2023-03-26T02:58:39.602Z,100761.78
2023-03-26T03:01:06.675Z,100708.09
2023-03-26T03:03:34.643Z,100698.44
2023-03-26T03:06:01.566Z,100694.19
2023-03-26T03:08:29.388Z,100682.19
2023-03-26T03:11:04.802Z,100706.72
2023-03-26T03:13:31.880Z,100713.69
2023-03-26T03:15:58.818Z,100722.25
2023-03-26T03:18:25.808Z,100706.63
2023-03-26T03:20:54.157Z,100731.25
2023-03-26T03:23:21.467Z,100750.13
2023-03-26T03:25:49.071Z,100676.22
2023-03-26T03:28:19.353Z,100718.94
2023-03-26T03:30:47.190Z,100736.81
2023-03-26T03:33:14.171Z,100697.81
2023-03-26T03:35:43.924Z,100734.66
2023-03-26T03:38:10.870Z,100667.34
2023-03-26T03:40:37.870Z,100703.06
2023-03-26T03:43:05.266Z,100692.63
2023-03-26T03:45:32.880Z,100685.50
2023-03-26T03:47:59.794Z,100693.19
2023-03-26T03:50:27.102Z,100701.38
2023-03-26T03:52:54.053Z,100715.94
2023-03-26T03:55:20.908Z,100646.00
2023-03-26T03:57:47.636Z,100651.94
2023-03-26T04:00:15.140Z,100666.94
2023-03-26T04:02:43.117Z,100685.03
2023-03-26T04:05:11.798Z,100690.63
2023-03-26T04:07:38.942Z,100659.91
2023-03-26T04:10:09.024Z,100658.13
2023-03-26T04:12:35.848Z,100666.63
2023-03-26T04:15:03.735Z,100695.63
2023-03-26T04:17:32.241Z,100643.56
2023-03-26T04:20:07.150Z,100653.63
2023-03-26T04:22:35.169Z,100661.28
2023-03-26T04:25:02.476Z,100659.50
2023-03-26T04:27:32.452Z,100639.09
2023-03-26T04:30:01.852Z,100641.78
2023-03-26T04:32:30.486Z,100658.00
2023-03-26T04:35:03.680Z,100618.03
2023-03-26T04:37:34.727Z,100689.22
2023-03-26T04:40:06.446Z,100650.88
2023-03-26T04:42:33.526Z,100642.88
2023-03-26T04:45:03.325Z,100670.63
2023-03-26T04:47:30.370Z,100619.44
2023-03-26T04:49:57.806Z,100607.28
2023-03-26T04:52:24.580Z,100621.06
2023-03-26T04:54:51.799Z,100628.63
2023-03-26T04:57:24.145Z,100616.22
2023-03-26T04:59:51.522Z,100623.38
2023-03-26T05:02:18.909Z,100607.31
2023-03-26T05:04:46.124Z,100603.16
2023-03-26T05:07:20.706Z,100641.91
2023-03-26T05:09:47.259Z,100645.00
2023-03-26T05:12:14.153Z,100605.53
2023-03-26T05:14:41.077Z,100586.91
2023-03-26T05:17:10.999Z,100639.00
2023-03-26T05:19:39.026Z,100598.81
2023-03-26T05:22:06.075Z,100581.72
2023-03-26T05:24:32.720Z,100602.13
2023-03-26T05:26:59.591Z,100580.13
2023-03-26T05:29:27.159Z,100607.56
2023-03-26T05:31:53.988Z,100633.81
2023-03-26T05:34:24.278Z,100602.47
2023-03-26T05:36:50.952Z,100561.59
2023-03-26T05:39:17.926Z,100584.19
2023-03-26T05:41:44.714Z,100591.00
2023-03-26T05:44:11.550Z,100602.72
2023-03-26T05:46:39.154Z,100601.53
2023-03-26T05:49:06.295Z,100616.16
2023-03-26T05:51:33.101Z,100570.69
2023-03-26T05:53:59.988Z,100595.16
2023-03-26T05:56:26.936Z,100588.44
2023-03-26T05:58:53.711Z,100545.34
2023-03-26T06:01:20.983Z,100564.03
2023-03-26T06:03:48.144Z,100611.38
2023-03-26T06:06:17.166Z,100561.16
2023-03-26T06:09:01.860Z,100544.84
2023-03-26T06:11:31.828Z,100584.88
2023-03-26T06:13:59.740Z,100568.78
2023-03-26T06:16:27.688Z,100561.41
2023-03-26T06:18:56.365Z,100531.06
2023-03-26T06:21:24.015Z,100525.44
2023-03-26T06:23:59.541Z,100555.78
2023-03-26T06:26:26.855Z,100580.34
2023-03-26T06:28:55.175Z,100585.34
2023-03-26T06:31:22.142Z,100516.84
2023-03-26T06:33:49.569Z,100506.75
2023-03-26T06:36:17.515Z,100527.72
2023-03-26T06:38:46.200Z,100531.81
2023-03-26T06:41:13.842Z,100528.13
2023-03-26T06:43:40.846Z,100542.06
2023-03-26T06:46:08.081Z,100571.56
2023-03-26T06:48:39.051Z,100561.03
2023-03-26T06:51:06.947Z,100530.94
2023-03-26T06:53:34.090Z,100520.00
2023-03-26T06:56:03.777Z,100534.63
2023-03-26T06:58:31.468Z,100561.69
2023-03-26T07:00:58.940Z,100551.25
2023-03-26T07:03:26.614Z,100521.34
2023-03-26T07:05:54.058Z,100511.34
2023-03-26T07:08:22.222Z,100545.78
2023-03-26T07:10:50.781Z,100559.81
2023-03-26T07:13:17.913Z,100514.97
2023-03-26T07:15:44.780Z,100535.78
2023-03-26T07:18:11.936Z,100506.06
2023-03-26T07:20:39.562Z,100516.06
2023-03-26T07:23:08.117Z,100521.56
2023-03-26T07:25:35.720Z,100536.94
2023-03-26T07:28:18.050Z,100548.06
2023-03-26T07:31:01.107Z,100569.78
2023-03-26T07:33:46.967Z,100544.97
2023-03-26T07:36:18.633Z,100564.03
2023-03-26T07:39:00.628Z,100559.78
2023-03-26T07:41:44.218Z,100512.53
2023-03-26T07:44:28.312Z,100564.75
2023-03-26T07:46:55.732Z,100523.59
2023-03-26T07:49:24.230Z,100563.53
2023-03-26T07:51:51.248Z,100561.72
2023-03-26T07:54:18.711Z,100504.66
2023-03-26T07:57:09.470Z,100521.44
2023-03-26T07:59:59.407Z,100509.56
2023-03-26T08:02:53.340Z,100506.84
2023-03-26T08:05:58.739Z,100563.16
2023-03-26T08:08:25.793Z,100565.50
2023-03-26T08:11:07.788Z,100568.34
2023-03-26T08:13:39.329Z,100566.81
2023-03-26T08:16:43.779Z,100544.81
2023-03-26T08:19:23.679Z,100571.06
2023-03-26T08:21:58.638Z,100534.94
2023-03-26T08:24:53.960Z,100540.63
2023-03-26T08:27:28.499Z,100503.25
2023-03-26T08:30:11.587Z,100568.81
2023-03-26T08:32:38.994Z,100563.81
2023-03-26T08:35:06.906Z,100571.06
2023-03-26T08:37:34.038Z,100534.53
2023-03-26T08:40:01.466Z,100546.59
2023-03-26T08:42:53.689Z,100570.88
2023-03-26T08:45:34.427Z,100563.63
2023-03-26T08:48:13.496Z,100572.72
2023-03-26T08:51:05.750Z,100585.66
2023-03-26T08:54:07.057Z,100543.75
2023-03-26T08:56:53.218Z,100580.72
2023-03-26T08:59:45.577Z,100580.72
2023-03-26T09:02:55.877Z,100571.72
2023-03-26T09:05:49.025Z,100561.06
2023-03-26T09:08:22.629Z,100573.88
2023-03-26T09:11:06.817Z,100578.97
2023-03-26T09:14:16.169Z,100576.16
2023-03-26T09:17:08.426Z,100584.16
2023-03-26T09:19:36.288Z,100581.44
2023-03-26T09:22:47.766Z,100579.66
2023-03-26T09:25:39.993Z,100585.28
2023-03-26T09:28:41.804Z,100587.94
2023-03-26T09:31:34.857Z,100588.69
2023-03-26T09:34:46.052Z,100589.72
2023-03-26T09:37:56.452Z,100588.78
2023-03-26T09:40:38.489Z,100542.59
2023-03-26T09:43:29.370Z,100594.59
2023-03-26T09:46:51.743Z,100594.09
2023-03-26T09:49:38.248Z,100552.09
2023-03-26T09:52:23.535Z,100600.66
2023-03-26T09:55:20.941Z,100610.00
2023-03-26T09:58:25.445Z,100605.66
2023-03-26T10:01:34.095Z,100612.91
2023-03-26T10:04:28.450Z,100603.69
2023-03-26T10:07:06.652Z,100619.19
2023-03-26T10:09:59.945Z,100592.66
2023-03-26T10:12:37.070Z,100615.81
2023-03-26T10:15:17.013Z,100572.56
2023-03-26T10:18:05.825Z,100621.09
2023-03-26T10:21:31.863Z,100592.19
2023-03-26T10:24:12.488Z,100620.16
2023-03-26T10:27:24.753Z,100599.16
2023-03-26T10:30:11.094Z,100619.88
2023-03-26T10:33:04.150Z,100626.75
2023-03-26T10:35:37.743Z,100626.56
2023-03-26T10:38:16.472Z,100596.63
2023-03-26T10:41:11.942Z,100613.56
2023-03-26T10:44:16.982Z,100641.59
2023-03-26T10:47:02.118Z,100634.53
2023-03-26T10:49:54.912Z,100637.47
2023-03-26T10:52:25.404Z,100645.28
2023-03-26T10:55:13.612Z,100645.84
2023-03-26T10:57:46.557Z,100644.06
2023-03-26T11:00:26.321Z,100647.28
2023-03-26T11:03:21.009Z,100661.66
2023-03-26T11:06:12.070Z,100597.47
2023-03-26T11:08:56.160Z,100627.19
2023-03-26T11:11:36.918Z,100603.88
2023-03-26T11:14:34.954Z,100659.97
2023-03-26T11:17:10.245Z,100674.50
2023-03-26T11:19:53.640Z,100625.56
2023-03-26T11:22:21.098Z,100673.50
2023-03-26T11:24:56.332Z,100681.28
2023-03-26T11:27:25.176Z,100677.84
2023-03-26T11:30:22.465Z,100683.81
2023-03-26T11:32:55.831Z,100693.75
2023-03-26T11:35:39.812Z,100677.06
2023-03-26T11:38:20.530Z,100641.72
2023-03-26T11:40:53.271Z,100630.59
2023-03-26T11:43:27.003Z,100668.09
2023-03-26T11:45:54.119Z,100685.91
2023-03-26T11:48:45.116Z,100632.84
2023-03-26T11:51:18.822Z,100655.28
2023-03-26T11:53:47.706Z,100696.47
2023-03-26T11:56:28.392Z,100687.31
2023-03-26T11:59:09.813Z,100700.34
2023-03-26T12:01:56.078Z,100701.47
2023-03-26T12:04:41.641Z,100680.59
2023-03-26T12:07:29.010Z,100635.97
2023-03-26T12:10:15.452Z,100708.44
2023-03-26T12:12:47.734Z,100712.63
2023-03-26T12:15:19.226Z,100656.53
2023-03-26T12:17:49.482Z,100690.84
2023-03-26T12:20:25.761Z,100717.13
2023-03-26T12:23:01.209Z,100721.88
2023-03-26T12:25:40.270Z,100727.53
2023-03-26T12:28:13.831Z,100729.72
2023-03-26T12:30:43.136Z,100682.56
2023-03-26T12:33:26.475Z,100680.59
2023-03-26T12:35:56.296Z,100686.19
2023-03-26T12:38:34.016Z,100693.44
2023-03-26T12:42:52.813Z,100688.25
2023-03-26T12:44:47.004Z,100748.81
2023-03-26T12:48:00.297Z,100749.22
2023-03-26T12:50:34.554Z,100751.94
2023-03-26T12:53:40.750Z,100762.19
2023-03-26T12:56:36.515Z,100762.78
2023-03-26T12:59:29.896Z,100733.16
2023-03-26T13:02:30.465Z,100760.50
2023-03-26T13:05:10.166Z,100764.97
2023-03-26T13:07:53.644Z,100770.97
2023-03-26T13:11:06.948Z,100726.81
2023-03-26T13:14:07.677Z,100780.13
2023-03-26T13:17:00.241Z,100775.69
2023-03-26T13:19:37.984Z,100782.88
2023-03-26T13:22:33.850Z,100796.91
2023-03-26T13:25:17.155Z,100789.75
2023-03-26T13:28:15.116Z,100750.16
2023-03-26T13:31:06.260Z,100779.47
2023-03-26T13:34:02.345Z,100794.81
2023-03-26T13:36:48.054Z,100813.19
2023-03-26T13:39:38.035Z,100796.59
2023-03-26T13:42:14.231Z,100801.44
2023-03-26T13:45:04.655Z,100775.81
2023-03-26T13:47:41.437Z,100733.97
2023-03-26T13:50:21.112Z,100755.03
2023-03-26T13:52:56.132Z,100801.63
2023-03-26T13:55:36.794Z,100794.81
2023-03-26T13:58:07.072Z,100807.75
2023-03-26T14:01:00.830Z,100815.25
2023-03-26T14:03:53.897Z,100817.56
2023-03-26T14:06:42.327Z,100824.22
2023-03-26T14:09:24.134Z,100830.59
2023-03-26T14:11:57.864Z,100834.00
2023-03-26T14:14:49.464Z,100837.34
2023-03-26T14:17:25.702Z,100833.59
2023-03-26T14:20:30.216Z,100836.66
2023-03-26T14:23:26.636Z,100836.47
2023-03-26T14:25:56.442Z,100864.66
2023-03-26T14:28:49.538Z,100847.47
2023-03-26T14:31:39.270Z,100856.91
2023-03-26T14:34:13.156Z,100849.25
2023-03-26T14:37:07.406Z,100856.59
2023-03-26T14:39:34.334Z,100865.53
2023-03-26T14:42:21.826Z,100872.59
2023-03-26T14:45:19.852Z,100836.63
2023-03-26T14:48:21.662Z,100866.88
2023-03-26T14:51:28.254Z,100880.50
2023-03-26T14:54:03.237Z,100888.44
2023-03-26T14:56:48.762Z,100882.22
2023-03-26T14:59:18.931Z,100894.38
2023-03-26T15:02:07.667Z,100899.16
2023-03-26T15:04:54.652Z,100865.66
2023-03-26T15:07:45.806Z,100876.53
2023-03-26T15:10:19.212Z,100911.22
2023-03-26T15:13:04.928Z,100920.13
2023-03-26T15:15:53.943Z,100916.44
2023-03-26T15:18:52.064Z,100927.84
2023-03-26T15:21:56.929Z,100925.97
2023-03-26T15:24:28.134Z,100935.84
2023-03-26T15:27:20.443Z,100919.16
2023-03-26T15:30:18.121Z,100952.13
2023-03-26T15:33:12.176Z,100958.34
2023-03-26T15:35:57.736Z,100959.09
2023-03-26T15:39:01.394Z,100965.63
2023-03-26T15:41:56.447Z,100937.22
2023-03-26T15:44:53.067Z,100960.28
2023-03-26T15:47:32.021Z,100972.22
2023-03-26T15:50:11.220Z,100987.63
2023-03-26T15:53:31.228Z,100994.84
2023-03-26T15:56:08.570Z,100990.53
2023-03-26T15:58:53.762Z,100961.53
2023-03-26T16:01:34.318Z,101011.72
2023-03-26T16:04:19.893Z,101015.19
2023-03-26T16:07:11.950Z,101027.94
2023-03-26T16:10:17.599Z,100957.63
2023-03-26T16:13:12.846Z,100966.56
2023-03-26T16:15:41.203Z,100974.84
2023-03-26T16:18:30.330Z,101044.47
2023-03-26T16:21:31.292Z,101048.28
2023-03-26T16:24:24.973Z,101018.88
2023-03-26T16:26:52.046Z,101058.53
2023-03-26T16:29:24.076Z,101016.22
2023-03-26T16:32:33.211Z,101067.03
2023-03-26T16:35:25.549Z,101000.59
2023-03-26T16:38:27.495Z,101078.22
2023-03-26T16:41:16.147Z,101073.63
2023-03-26T16:44:20.563Z,101092.56
2023-03-26T16:50:09.100Z,101097.81
2023-03-26T16:52:59.038Z,101106.59
2023-03-26T16:55:44.416Z,101107.91
2023-03-26T16:58:31.054Z,101104.50
2023-03-26T17:01:43.223Z,101117.75
2023-03-26T17:04:23.420Z,101109.66
2023-03-26T17:06:53.844Z,101122.97
2023-03-26T17:09:44.914Z,101097.94
2023-03-26T17:12:24.038Z,101140.84
2023-03-26T17:15:06.385Z,101085.06
2023-03-26T17:18:04.329Z,101153.41
2023-03-26T17:20:40.237Z,101171.28
2023-03-26T17:23:34.892Z,101186.31
2023-03-26T17:26:10.505Z,101163.59
2023-03-26T17:28:56.279Z,101179.63
2023-03-26T17:31:53.719Z,101176.84
2023-03-26T17:34:39.610Z,101174.19
2023-03-26T17:37:28.835Z,101150.63
2023-03-26T17:39:56.315Z,101183.03
2023-03-26T17:42:36.169Z,101174.63
2023-03-26T17:45:20.630Z,101204.09
2023-03-26T17:47:56.680Z,101131.56
2023-03-26T17:50:35.304Z,101212.50
2023-03-26T17:53:06.302Z,101147.63
2023-03-26T17:55:40.191Z,101172.19
2023-03-26T17:58:23.830Z,101180.53
2023-03-26T18:01:04.577Z,101165.22
2023-03-26T18:03:50.590Z,101229.56
2023-03-26T18:06:56.470Z,101221.38
2023-03-26T18:09:54.487Z,101259.34
2023-03-26T18:13:00.224Z,101227.06
2023-03-26T18:15:45.308Z,101260.41
2023-03-26T18:18:29.600Z,101253.50
2023-03-26T18:21:02.381Z,101261.59
2023-03-26T18:23:37.926Z,101279.44
2023-03-26T18:26:19.864Z,101283.66
2023-03-26T18:28:53.257Z,101228.47
2023-03-26T18:31:26.519Z,101262.75
2023-03-26T18:33:59.422Z,101232.06
2023-03-26T18:36:28.520Z,101280.19
2023-03-26T18:39:01.473Z,101238.56
2023-03-26T18:41:39.351Z,101277.22
2023-03-26T18:44:13.201Z,101306.66
2023-03-26T18:46:41.682Z,101298.03
2023-03-26T18:49:13.545Z,101293.94
2023-03-26T18:51:54.066Z,101264.81
2023-03-26T18:54:26.364Z,101336.69
2023-03-26T18:56:53.339Z,101301.91
2023-03-26T18:59:41.253Z,101358.78
2023-03-26T19:02:13.933Z,101302.22
2023-03-26T19:04:46.707Z,101302.66
2023-03-26T19:07:16.912Z,101300.06
2023-03-26T19:09:44.827Z,101336.34
2023-03-26T19:12:25.633Z,101329.69
2023-03-26T19:15:04.395Z,101378.41
2023-03-26T19:17:44.620Z,101387.28
2023-03-26T19:20:19.035Z,101341.13
2023-03-26T19:22:48.648Z,101371.25
2023-03-26T19:25:38.317Z,101376.75
2023-03-26T19:28:14.223Z,101417.81
2023-03-26T19:30:42.252Z,101376.75
2023-03-26T19:33:19.077Z,101382.88
2023-03-26T19:35:52.906Z,101384.72
2023-03-26T19:38:27.821Z,101422.28
2023-03-26T19:40:58.185Z,101404.34
2023-03-26T19:43:29.553Z,101422.47
2023-03-26T19:46:01.276Z,101412.13
2023-03-26T19:48:45.580Z,101403.56
2023-03-26T19:51:23.266Z,101435.47
2023-03-26T19:53:54.357Z,101412.81
2023-03-26T19:56:23.891Z,101380.00
2023-03-26T19:58:51.652Z,101385.44
2023-03-26T20:01:24.216Z,101393.31
2023-03-26T20:03:55.671Z,101446.91
2023-03-26T20:06:31.002Z,101434.91
2023-03-26T20:09:10.972Z,101462.69
2023-03-26T20:11:39.965Z,101432.06
2023-03-26T20:14:34.987Z,101477.63
2023-03-26T20:17:01.806Z,101468.25
2023-03-26T20:19:33.972Z,101468.19
2023-03-26T20:22:00.737Z,101458.75
2023-03-26T20:24:31.290Z,101454.69
2023-03-26T20:27:02.023Z,101459.91
2023-03-26T20:29:33.127Z,101441.88
2023-03-26T20:32:06.410Z,101467.06
2023-03-26T20:34:34.428Z,101454.81
2023-03-26T20:37:04.550Z,101501.31
2023-03-26T20:39:31.467Z,101517.38
2023-03-26T20:42:00.329Z,101494.69
2023-03-26T20:44:28.577Z,101502.69
2023-03-26T20:46:59.597Z,101500.97
2023-03-26T20:49:29.540Z,101503.59
2023-03-26T20:51:56.329Z,101529.56
2023-03-26T20:54:26.014Z,101507.88
2023-03-26T20:56:56.254Z,101482.19
2023-03-26T20:59:26.841Z,101499.38
2023-03-26T21:02:09.545Z,101518.53
2023-03-26T21:04:36.418Z,101517.44
2023-03-26T21:07:18.165Z,101527.22
2023-03-26T21:09:47.518Z,101542.09
2023-03-26T21:12:24.214Z,101528.25
2023-03-26T21:14:55.783Z,101523.78
2023-03-26T21:17:23.336Z,101544.44
2023-03-26T21:19:50.592Z,101530.19
2023-03-26T21:22:35.174Z,101539.75
2023-03-26T21:25:27.489Z,101547.38
2023-03-26T21:28:19.452Z,101577.94
2023-03-26T21:30:47.262Z,101563.31
2023-03-26T21:33:14.020Z,101551.94
2023-03-26T21:35:44.794Z,101541.06
2023-03-26T21:38:12.013Z,101574.50
2023-03-26T21:40:44.436Z,101569.72
2023-03-26T21:43:21.655Z,101574.22
2023-03-26T21:45:49.804Z,101583.56
2023-03-26T21:48:17.121Z,101575.09
2023-03-26T21:50:46.097Z,101566.75
2023-03-26T21:53:17.800Z,101567.66
2023-03-26T21:56:30.537Z,101617.81
2023-03-26T21:59:35.897Z,101581.13
2023-03-26T22:02:12.450Z,101619.31
2023-03-26T22:05:01.556Z,101628.00
2023-03-26T22:08:01.630Z,101596.22
2023-03-26T22:10:29.423Z,101615.06
2023-03-26T22:13:08.860Z,101644.72
2023-03-26T22:15:38.377Z,101621.03
2023-03-26T22:18:08.104Z,101640.03
2023-03-26T22:20:37.200Z,101647.94
2023-03-26T22:23:11.976Z,101624.19
2023-03-26T22:25:42.498Z,101634.41
2023-03-26T22:28:09.515Z,101648.28
2023-03-26T22:30:41.423Z,101606.25
2023-03-26T22:33:12.074Z,101664.78
2023-03-26T22:35:41.410Z,101616.59
2023-03-26T22:38:09.875Z,101651.25
2023-03-26T22:40:42.240Z,101638.50
2023-03-26T22:43:09.683Z,101632.47
2023-03-26T22:45:39.914Z,101669.91
2023-03-26T22:48:06.918Z,101686.19
2023-03-26T22:50:35.153Z,101649.38
2023-03-26T22:53:01.789Z,101671.56
2023-03-26T22:55:30.047Z,101662.91
2023-03-26T22:57:57.995Z,101704.94
2023-03-26T23:00:28.901Z,101700.53
2023-03-26T23:03:00.502Z,101712.19
2023-03-26T23:05:32.388Z,101717.44
2023-03-26T23:08:00.541Z,101703.75
2023-03-26T23:10:30.283Z,101709.28
2023-03-26T23:12:57.007Z,101714.06
2023-03-26T23:15:27.444Z,101726.06
2023-03-26T23:17:57.607Z,101755.00
2023-03-26T23:20:24.404Z,101731.16
2023-03-26T23:22:51.412Z,101718.31
2023-03-26T23:25:23.001Z,101723.50
2023-03-26T23:27:50.773Z,101743.22
2023-03-26T23:30:17.529Z,101765.91
2023-03-26T23:32:47.279Z,101749.69
2023-03-26T23:35:16.203Z,101767.50
2023-03-26T23:37:45.399Z,101745.13
2023-03-26T23:40:14.133Z,101760.75
2023-03-26T23:42:47.916Z,101767.09
2023-03-26T23:45:16.606Z,101728.59
2023-03-26T23:47:43.396Z,101748.31
2023-03-26T23:50:14.922Z,101729.91
2023-03-26T23:52:47.990Z,101769.06
2023-03-26T23:55:17.082Z,101777.72
2023-03-26T23:57:44.045Z,101760.56
